TimeMDT,TemperatureF,Dew PointF,Humidity,Sea Level PressureIn,VisibilityMPH,Wind Direction,Wind SpeedMPH,Gust SpeedMPH,PrecipitationIn,Events,Conditions,WindDirDegrees,DateUTC
12:52 AM,26.1,12.0,55,30.22,10.0,Calm,Calm,-,N/A,,Clear,0,2012-10-29 06:52:00
1:52 AM,25.0,12.9,60,30.23,10.0,WSW,6.9,-,N/A,,Clear,250,2012-10-29 07:52:00
2:52 AM,26.1,14.0,60,30.22,10.0,West,6.9,-,N/A,,Clear,280,2012-10-29 08:52:00
3:52 AM,24.8,14.0,64,30.29,10.0,WSW,3.5,-,N/A,,Clear,240,2012-10-29 09:52:00
4:52 AM,21.9,12.9,68,30.24,10.0,West,3.5,-,N/A,,Clear,270,2012-10-29 10:52:00
5:52 AM,19.9,10.9,68,30.27,10.0,WSW,5.8,-,N/A,,Clear,250,2012-10-29 11:52:00
6:52 AM,21.0,12.9,71,30.33,10.0,Calm,Calm,-,N/A,,Clear,0,2012-10-29 12:52:00
7:52 AM,19.9,12.0,71,30.34,10.0,Calm,Calm,-,N/A,,Clear,0,2012-10-29 13:52:00
8:52 AM,25.0,15.1,66,30.37,10.0,Calm,Calm,-,N/A,,Clear,0,2012-10-29 14:52:00
9:52 AM,37.9,18.0,45,30.30,10.0,Calm,Calm,-,N/A,,Clear,0,2012-10-29 15:52:00
10:52 AM,48.0,19.9,33,30.30,10.0,Variable,3.5,-,N/A,,Clear,0,2012-10-29 16:52:00
11:52 AM,55.0,21.9,28,30.26,10.0,North,5.8,-,N/A,,Clear,10,2012-10-29 17:52:00
12:52 PM,55.9,21.9,27,30.22,10.0,Variable,5.8,-,N/A,,Clear,0,2012-10-29 18:52:00
1:52 PM,57.9,19.9,23,30.18,10.0,NE,5.8,-,N/A,,Clear,50,2012-10-29 19:52:00
2:52 PM,60.1,19.9,21,30.14,10.0,SE,5.8,-,N/A,,Clear,130,2012-10-29 20:52:00
3:52 PM,60.8,19.4,20,30.23,10.0,Calm,Calm,-,N/A,,Clear,0,2012-10-29 21:52:00
4:52 PM,61.0,19.9,21,30.13,10.0,ESE,3.5,-,N/A,,Clear,110,2012-10-29 22:52:00
5:52 PM,57.0,21.0,25,30.17,10.0,ENE,6.9,-,N/A,,Clear,60,2012-10-29 23:52:00
6:52 PM,46.9,19.9,34,30.23,10.0,East,3.5,-,N/A,,Clear,80,2012-10-30 00:52:00
7:52 PM,46.9,21.9,37,30.23,10.0,NE,4.6,-,N/A,,Clear,40,2012-10-30 01:52:00
8:52 PM,37.9,18.0,45,30.27,10.0,NW,4.6,-,N/A,,Clear,310,2012-10-30 02:52:00
9:52 PM,46.9,21.9,37,30.19,10.0,North,11.5,-,N/A,,Clear,350,2012-10-30 03:52:00
10:52 PM,37.9,19.9,48,30.18,10.0,NW,6.9,-,N/A,,Clear,320,2012-10-30 04:52:00
11:52 PM,30.9,18.0,59,30.19,10.0,NW,8.1,-,N/A,,Clear,320,2012-10-30 05:52:00